createdAt,value
2018-02-19T20:24:03.211Z,0.0
2018-02-19T20:25:05.186Z,0.0
2018-02-19T20:26:06.905Z,0.0
2018-02-19T20:27:08.792Z,0.0
2018-02-19T20:28:10.622Z,0.0
2018-02-19T20:29:12.442Z,0.0
2018-02-19T20:30:14.255Z,0.7
2018-02-19T20:31:16.088Z,1.6
2018-02-19T20:32:17.890Z,2.1
2018-02-19T20:33:19.667Z,2.9
2018-02-19T20:34:21.374Z,3.3
2018-02-19T20:35:23.184Z,3.3
2018-02-19T20:36:24.997Z,3.6
2018-02-19T20:37:27.122Z,3.3
2018-02-19T20:38:29.083Z,3.1
2018-02-19T20:39:31.101Z,3.4
2018-02-19T20:40:32.901Z,3.1
2018-02-19T20:41:34.738Z,2.1
2018-02-19T20:42:36.580Z,1.9
2018-02-19T20:43:38.380Z,1.0
2018-02-19T20:44:40.281Z,1.0
2018-02-19T20:46:34.152Z,1.0
2018-02-19T20:47:35.843Z,1.8
2018-02-19T20:48:37.740Z,1.6
2018-02-19T20:49:39.659Z,2.4
2018-02-19T20:50:41.464Z,2.4
2018-02-19T20:51:43.389Z,2.6
2018-02-19T20:52:45.318Z,2.0
2018-02-19T20:53:47.177Z,2.0
2018-02-19T20:54:49.062Z,1.5
2018-02-19T20:55:51.037Z,0.0
2018-02-19T20:56:52.844Z,0.8
2018-02-19T20:57:54.702Z,0.0
2018-02-19T20:58:56.562Z,0.0
2018-02-19T20:59:58.433Z,0.0
2018-02-19T21:01:00.229Z,1.8
2018-02-19T21:02:02.202Z,1.6
2018-02-19T21:03:03.985Z,0.0
2018-02-19T21:04:05.920Z,1.0
2018-02-19T21:05:07.846Z,1.5
2018-02-19T21:06:09.738Z,0.9
2018-02-19T21:07:12.532Z,0.8
2018-02-19T21:08:14.463Z,0.5
2018-02-19T21:09:16.340Z,0.2
2018-02-19T21:10:18.196Z,0.4
2018-02-19T21:11:20.139Z,0.8
2018-02-19T21:12:22.049Z,1.0
2018-02-19T21:13:23.957Z,0.8
2018-02-19T21:14:25.867Z,0.8
2018-02-19T21:15:27.827Z,0.7
2018-02-19T21:16:29.747Z,0.7
2018-02-19T21:17:31.617Z,0.8
2018-02-19T21:18:33.559Z,1.4
2018-02-19T21:19:35.495Z,0.0
2018-02-19T21:20:37.384Z,2.3
2018-02-19T21:21:39.300Z,2.7
2018-02-19T21:22:41.210Z,3.1
2018-02-19T21:23:44.840Z,2.9
2018-02-19T21:24:46.983Z,3.0
2018-02-19T21:25:48.941Z,3.5
2018-02-19T21:26:50.809Z,4.1
2018-02-19T21:27:52.708Z,4.6
2018-02-19T21:28:54.722Z,4.2
2018-02-19T21:29:56.638Z,0.0
2018-02-19T21:30:58.579Z,4.5
2018-02-19T21:32:00.512Z,4.9
2018-02-19T21:33:02.433Z,4.2
2018-02-19T21:34:04.341Z,3.6
2018-02-19T21:35:06.368Z,3.9
2018-02-19T21:36:08.225Z,3.8
2018-02-19T21:37:10.063Z,0.0
2018-02-19T21:38:11.969Z,3.5
2018-02-19T21:39:14.004Z,3.1
2018-02-19T21:41:59.180Z,2.1
2018-02-19T21:43:01.362Z,1.4
2018-02-19T21:44:03.374Z,0.4
2018-02-19T21:45:06.345Z,0.0
2018-02-19T21:46:08.326Z,0.0
2018-02-19T21:47:10.170Z,0.0
2018-02-19T21:48:12.213Z,0.0
2018-02-19T21:49:14.218Z,0.0
2018-02-19T21:50:18.309Z,0.0
2018-02-19T21:51:20.332Z,0.0
2018-02-19T21:52:22.471Z,0.0
2018-02-19T21:53:24.438Z,0.0
2018-02-19T21:54:26.410Z,0.0
2018-02-19T21:55:28.395Z,0.0
2018-02-19T21:56:30.359Z,0.0
2018-02-19T21:57:32.444Z,0.0
2018-02-19T21:58:34.410Z,0.0
2018-02-19T21:59:36.917Z,0.0
2018-02-19T22:00:38.902Z,0.0
2018-02-19T22:01:40.775Z,0.0
2018-02-19T22:02:42.883Z,0.0
2018-02-19T22:03:45.642Z,0.0
2018-02-19T22:04:47.660Z,0.0
2018-02-19T22:05:49.531Z,0.0
2018-02-19T22:06:51.438Z,0.0
2018-02-19T22:07:53.372Z,0.0
2018-02-19T22:08:55.162Z,0.0
2018-02-19T22:09:56.923Z,0.0
2018-02-19T22:10:58.703Z,0.0
2018-02-19T22:12:00.529Z,0.0
2018-02-19T22:13:02.309Z,0.0
2018-02-19T22:14:04.102Z,0.0
2018-02-19T22:15:05.973Z,0.0
2018-02-19T22:16:07.780Z,0.0
2018-02-19T22:17:09.615Z,0.0
2018-02-19T22:18:11.415Z,0.0
2018-02-19T22:19:13.243Z,0.0
2018-02-19T22:20:15.031Z,0.0
2018-02-19T22:21:16.813Z,0.0
2018-02-19T22:22:18.622Z,0.0
2018-02-19T22:23:20.425Z,0.0
2018-02-19T22:24:22.241Z,0.0
2018-02-19T22:25:25.017Z,0.0
2018-02-19T22:26:25.997Z,0.0
2018-02-19T22:27:27.809Z,0.0
2018-02-19T22:28:30.522Z,0.0
2018-02-19T22:29:32.379Z,0.0
2018-02-19T22:30:34.202Z,0.0
2018-02-19T22:31:35.969Z,0.0
2018-02-19T22:32:37.872Z,0.0
2018-02-19T22:33:39.635Z,0.0
2018-02-19T22:34:41.480Z,0.0
2018-02-19T22:35:43.322Z,0.0
2018-02-19T22:36:45.105Z,0.0
2018-02-19T22:37:46.975Z,0.0
2018-02-19T22:38:48.745Z,0.0
2018-02-19T22:39:50.590Z,0.0
2018-02-19T22:40:52.438Z,0.0
2018-02-19T22:41:54.249Z,0.0
2018-02-19T22:42:56.046Z,0.0
2018-02-19T22:43:57.863Z,0.0
2018-02-19T22:44:59.611Z,0.0
2018-02-19T22:46:01.391Z,0.0
2018-02-19T22:47:03.202Z,0.0
2018-02-19T22:48:05.016Z,0.0
2018-02-19T22:49:06.802Z,0.0
2018-02-19T22:50:08.572Z,0.0
2018-02-19T22:51:10.344Z,0.0
2018-02-19T22:52:12.068Z,0.0
2018-02-19T22:53:13.765Z,0.0
2018-02-19T22:54:15.494Z,0.0
2018-02-19T22:55:17.324Z,0.2
2018-02-19T22:56:19.046Z,0.8
2018-02-19T22:57:20.844Z,0.9
2018-02-19T22:58:22.711Z,0.0
2018-02-19T22:59:24.492Z,0.0
2018-02-19T23:00:26.231Z,0.2
2018-02-19T23:01:28.008Z,0.0
2018-02-19T23:02:29.740Z,0.8
2018-02-19T23:03:31.480Z,0.8
2018-02-19T23:04:33.291Z,0.0
2018-02-19T23:05:35.035Z,0.0
2018-02-19T23:06:36.820Z,0.0
2018-02-19T23:07:38.562Z,0.0
2018-02-19T23:08:40.315Z,0.0
2018-02-19T23:09:42.037Z,0.0
2018-02-19T23:10:43.826Z,0.0
2018-02-19T23:11:45.536Z,0.0
2018-02-19T23:12:47.358Z,0.0
2018-02-19T23:14:56.952Z,0.0
2018-02-19T23:15:58.768Z,0.0
2018-02-19T23:17:00.677Z,0.0
2018-02-19T23:18:02.659Z,0.0
2018-02-19T23:19:04.452Z,0.0
2018-02-19T23:20:06.271Z,0.0
2018-02-19T23:21:08.084Z,0.0
2018-02-19T23:22:09.863Z,0.0
2018-02-19T23:23:11.683Z,0.0
2018-02-19T23:24:13.452Z,0.0
2018-02-19T23:25:15.229Z,0.0
2018-02-19T23:26:17.105Z,0.0
2018-02-19T23:27:18.904Z,0.0
2018-02-19T23:28:20.751Z,0.0
2018-02-19T23:29:22.581Z,0.0
2018-02-19T23:30:24.338Z,0.0
2018-02-19T23:31:26.040Z,0.0
2018-02-19T23:32:27.807Z,0.0
2018-02-19T23:33:29.543Z,0.0
2018-02-19T23:34:31.247Z,0.0
2018-02-19T23:35:33.007Z,0.0
2018-02-19T23:36:34.751Z,0.0
2018-02-19T23:37:36.515Z,0.0
2018-02-19T23:38:38.253Z,0.0
2018-02-19T23:39:40.026Z,0.0
2018-02-19T23:40:41.735Z,0.0
2018-02-19T23:41:43.489Z,0.0
2018-02-19T23:42:45.205Z,0.0
2018-02-19T23:43:46.928Z,0.0
2018-02-19T23:44:48.663Z,0.0
2018-02-19T23:45:50.400Z,0.0
2018-02-19T23:46:52.114Z,0.0
2018-02-19T23:47:53.847Z,0.0
2018-02-19T23:48:55.595Z,0.0
2018-02-19T23:49:57.389Z,0.0
2018-02-19T23:50:59.170Z,0.0
2018-02-19T23:52:00.890Z,0.0
2018-02-19T23:53:02.612Z,0.0
2018-02-19T23:54:04.437Z,0.0
2018-02-19T23:55:06.234Z,0.0
2018-02-19T23:56:08.002Z,0.0
2018-02-19T23:57:09.744Z,0.0
2018-02-19T23:58:11.460Z,0.0
2018-02-19T23:59:13.162Z,0.0
